createdAt,value
2022-09-22T00:01:39.922Z,8.52
2022-09-22T00:04:13.367Z,8.47
2022-09-22T00:06:47.775Z,8.48
2022-09-22T00:09:18.620Z,8.34
2022-09-22T00:11:49.546Z,8.30
2022-09-22T00:14:21.642Z,8.28
2022-09-22T00:16:52.333Z,8.31
2022-09-22T00:19:23.842Z,8.22
2022-09-22T00:21:54.332Z,8.24
2022-09-22T00:24:24.583Z,8.32
2022-09-22T00:26:56.902Z,8.36
2022-09-22T00:29:26.904Z,8.37
2022-09-22T00:31:55.899Z,8.44
2022-09-22T00:34:26.647Z,8.51
2022-09-22T00:36:57.080Z,8.52
2022-09-22T00:39:27.543Z,8.49
2022-09-22T00:41:56.193Z,8.47
2022-09-22T00:44:40.356Z,8.44
2022-09-22T00:47:33.194Z,8.44
2022-09-22T00:50:08.649Z,8.47
2022-09-22T00:52:44.374Z,8.45
2022-09-22T00:55:19.614Z,8.37
2022-09-22T00:57:49.855Z,8.31
2022-09-22T01:00:20.322Z,8.31
2022-09-22T01:02:51.966Z,8.32
2022-09-22T01:05:24.013Z,8.27
2022-09-22T01:07:55.503Z,8.29
2022-09-22T01:10:27.105Z,8.32
2022-09-22T01:13:10.416Z,8.35
2022-09-22T01:15:47.329Z,8.38
2022-09-22T01:18:28.263Z,8.32
2022-09-22T01:21:20.552Z,8.30
2022-09-22T01:24:19.683Z,8.30
2022-09-22T01:27:13.880Z,8.26
2022-09-22T01:30:12.971Z,8.24
2022-09-22T01:33:02.224Z,8.24
2022-09-22T01:35:34.042Z,8.22
2022-09-22T01:38:11.405Z,8.15
2022-09-22T01:40:44.498Z,8.01
2022-09-22T01:43:23.761Z,7.94
2022-09-22T01:45:54.604Z,7.88
2022-09-22T01:48:27.881Z,7.81
2022-09-22T01:51:04.582Z,7.75
2022-09-22T01:53:39.364Z,7.74
2022-09-22T01:56:11.824Z,7.78
2022-09-22T01:58:44.640Z,7.87
2022-09-22T02:01:17.233Z,7.97
2022-09-22T02:03:50.884Z,7.91
2022-09-22T02:06:23.314Z,7.84
2022-09-22T02:08:58.943Z,7.82
2022-09-22T02:11:27.740Z,7.80
2022-09-22T02:13:56.610Z,7.84
2022-09-22T02:16:28.475Z,7.92
2022-09-22T02:19:12.611Z,7.80
2022-09-22T02:21:45.841Z,7.72
2022-09-22T02:24:29.724Z,7.71
2022-09-22T02:27:00.255Z,7.69
2022-09-22T02:29:32.733Z,7.67
2022-09-22T02:32:06.637Z,7.61
2022-09-22T02:34:36.961Z,7.61
2022-09-22T02:37:14.235Z,7.66
2022-09-22T02:39:49.133Z,7.60
2022-09-22T02:42:29.014Z,7.53
2022-09-22T02:45:06.850Z,7.60
2022-09-22T02:47:40.211Z,7.60
2022-09-22T02:50:14.406Z,7.59
2022-09-22T02:52:43.145Z,7.59
2022-09-22T02:55:12.346Z,7.58
2022-09-22T02:57:40.972Z,7.55
2022-09-22T03:00:10.865Z,7.40
2022-09-22T03:02:39.482Z,7.31
2022-09-22T03:05:08.781Z,7.36
2022-09-22T03:07:38.932Z,7.42
2022-09-22T03:10:09.763Z,7.50
2022-09-22T03:13:02.574Z,7.58
2022-09-22T03:15:32.027Z,7.64
2022-09-22T03:18:00.771Z,7.66
2022-09-22T03:20:29.433Z,7.56
2022-09-22T03:22:59.551Z,7.54
2022-09-22T03:25:28.643Z,7.61
2022-09-22T03:27:57.222Z,7.59
2022-09-22T03:30:25.992Z,7.56
2022-09-22T03:32:54.625Z,7.48
2022-09-22T03:35:23.394Z,7.43
2022-09-22T03:37:51.974Z,7.39
2022-09-22T03:40:22.838Z,7.47
2022-09-22T03:42:51.662Z,7.52
2022-09-22T03:45:20.338Z,7.53
2022-09-22T03:47:49.208Z,7.52
2022-09-22T03:50:17.953Z,7.45
2022-09-22T03:52:46.573Z,7.50
2022-09-22T03:55:15.210Z,7.53
2022-09-22T03:57:45.216Z,7.44
2022-09-22T04:00:15.954Z,7.24
2022-09-22T04:02:45.031Z,7.25
2022-09-22T04:05:13.732Z,7.22
2022-09-22T04:07:42.680Z,7.27
2022-09-22T04:10:11.501Z,7.32
2022-09-22T04:12:40.101Z,7.25
2022-09-22T04:15:11.221Z,7.20
2022-09-22T04:17:39.971Z,7.24
2022-09-22T04:20:11.711Z,7.34
2022-09-22T04:22:40.569Z,7.18
2022-09-22T04:25:10.993Z,7.15
2022-09-22T04:27:39.674Z,7.13
2022-09-22T04:30:11.506Z,7.04
2022-09-22T04:32:40.821Z,7.05
2022-09-22T04:35:10.203Z,7.05
2022-09-22T04:37:38.890Z,7.05
2022-09-22T04:40:08.519Z,7.06
2022-09-22T04:42:36.901Z,6.98
2022-09-22T04:45:07.397Z,6.98
2022-09-22T04:47:37.532Z,6.99
2022-09-22T04:50:06.680Z,6.92
2022-09-22T04:52:35.325Z,6.88
2022-09-22T04:55:03.979Z,7.04
2022-09-22T04:57:32.623Z,7.05
2022-09-22T05:00:01.176Z,6.99
2022-09-22T05:02:29.674Z,6.99
2022-09-22T05:04:59.658Z,7.02
2022-09-22T05:07:28.585Z,7.00
2022-09-22T05:09:57.155Z,7.02
2022-09-22T05:12:27.420Z,7.04
2022-09-22T05:14:56.137Z,7.01
2022-09-22T05:17:28.746Z,7.00
2022-09-22T05:19:57.425Z,7.05
2022-09-22T05:22:27.305Z,7.08
2022-09-22T05:24:55.929Z,7.24
2022-09-22T05:27:27.306Z,7.43
2022-09-22T05:29:56.015Z,7.59
2022-09-22T05:32:24.597Z,7.67
2022-09-22T05:34:53.146Z,7.78
2022-09-22T05:37:21.747Z,7.91
2022-09-22T05:39:52.135Z,7.96
2022-09-22T05:42:21.686Z,8.07
2022-09-22T05:44:50.365Z,8.20
2022-09-22T05:47:18.973Z,8.35
2022-09-22T05:49:47.581Z,8.48
2022-09-22T05:52:16.200Z,8.55
2022-09-22T05:54:44.720Z,8.65
2022-09-22T05:57:14.748Z,8.75
2022-09-22T05:59:43.299Z,8.87
2022-09-22T06:02:25.027Z,9.00
2022-09-22T06:04:54.423Z,9.14
2022-09-22T06:07:24.347Z,9.28
2022-09-22T06:09:53.230Z,9.41
2022-09-22T06:12:23.249Z,9.53
2022-09-22T06:14:51.978Z,9.53
2022-09-22T06:17:20.401Z,9.55
2022-09-22T06:19:50.757Z,9.53
2022-09-22T06:22:19.900Z,9.72
2022-09-22T06:24:49.270Z,9.95
2022-09-22T06:27:17.970Z,10.10
2022-09-22T06:29:47.878Z,10.19
2022-09-22T06:32:16.468Z,10.25
2022-09-22T06:34:46.367Z,10.35
2022-09-22T06:37:16.027Z,10.47
2022-09-22T06:39:44.517Z,10.60
2022-09-22T06:42:15.538Z,10.73
2022-09-22T06:44:44.709Z,10.89
2022-09-22T06:47:14.666Z,11.00
2022-09-22T06:49:43.378Z,11.04
2022-09-22T06:52:14.369Z,11.10
2022-09-22T06:54:43.011Z,11.05
2022-09-22T06:57:12.221Z,11.08
2022-09-22T06:59:41.803Z,10.90
2022-09-22T07:02:11.592Z,10.88
2022-09-22T07:04:41.600Z,11.03
2022-09-22T07:07:10.106Z,11.06
2022-09-22T07:09:38.668Z,11.29
2022-09-22T07:12:07.542Z,11.34
2022-09-22T07:14:36.101Z,11.28
2022-09-22T07:17:04.630Z,11.20
2022-09-22T07:19:36.731Z,11.35
2022-09-22T07:22:08.592Z,11.56
2022-09-22T07:24:37.142Z,11.76
2022-09-22T07:27:07.522Z,11.96
2022-09-22T07:29:36.161Z,12.14
2022-09-22T07:32:05.252Z,12.36
2022-09-22T07:34:34.018Z,12.54
2022-09-22T07:37:03.460Z,12.74
2022-09-22T07:39:33.462Z,12.92
2022-09-22T07:42:01.971Z,13.05
2022-09-22T07:44:44.334Z,13.23
2022-09-22T07:47:13.463Z,13.35
2022-09-22T07:49:43.203Z,13.50
2022-09-22T07:52:12.052Z,13.60
2022-09-22T07:54:42.001Z,13.70
2022-09-22T07:57:11.332Z,13.82
2022-09-22T07:59:41.933Z,13.93
2022-09-22T08:02:11.673Z,14.08
2022-09-22T08:04:41.272Z,14.26
2022-09-22T08:07:09.786Z,14.32
2022-09-22T08:09:38.343Z,14.32
2022-09-22T08:12:08.558Z,14.38
2022-09-22T08:14:37.083Z,14.45
2022-09-22T08:17:11.005Z,14.50
2022-09-22T08:19:39.766Z,14.63
2022-09-22T08:22:08.717Z,14.72
2022-09-22T08:24:37.425Z,14.88
2022-09-22T08:27:07.591Z,14.89
2022-09-22T08:29:37.116Z,14.95
2022-09-22T08:32:05.825Z,15.09
2022-09-22T08:34:34.503Z,15.18
2022-09-22T08:37:03.454Z,15.29
2022-09-22T08:39:32.103Z,15.38
2022-09-22T08:42:10.544Z,15.54
2022-09-22T08:44:49.595Z,15.57
2022-09-22T08:47:42.816Z,15.59
2022-09-22T08:50:33.683Z,15.73
2022-09-22T08:53:06.744Z,15.79
2022-09-22T08:55:44.345Z,15.76
2022-09-22T08:58:27.736Z,15.67
2022-09-22T09:01:06.266Z,15.70
2022-09-22T09:03:50.564Z,15.81
2022-09-22T09:06:24.523Z,15.91
2022-09-22T09:09:13.634Z,15.93
2022-09-22T09:12:07.336Z,15.89
2022-09-22T09:14:54.346Z,15.99
2022-09-22T09:17:26.806Z,16.14
2022-09-22T09:19:59.183Z,16.32
2022-09-22T09:22:33.241Z,16.41
2022-09-22T09:27:59.545Z,16.55
2022-09-22T09:30:40.020Z,16.64
2022-09-22T09:33:19.825Z,16.82
2022-09-22T09:35:53.353Z,16.91
2022-09-22T09:38:28.872Z,17.04
2022-09-22T09:41:02.114Z,17.12
2022-09-22T09:43:30.703Z,17.14
2022-09-22T09:46:15.340Z,17.04
2022-09-22T09:49:03.173Z,16.76
2022-09-22T09:51:31.777Z,16.83
2022-09-22T09:54:05.700Z,16.91
2022-09-22T09:56:37.459Z,16.99
2022-09-22T09:59:18.675Z,17.03
2022-09-22T10:01:51.061Z,16.99
2022-09-22T10:04:32.244Z,17.13
2022-09-22T10:07:13.119Z,17.24
2022-09-22T10:09:42.348Z,17.31
2022-09-22T10:12:27.706Z,17.39
2022-09-22T10:14:57.575Z,17.57
2022-09-22T10:17:31.434Z,17.50
2022-09-22T10:20:23.278Z,17.20
2022-09-22T10:22:52.466Z,17.36
2022-09-22T10:25:24.499Z,17.51
2022-09-22T10:28:04.776Z,17.44
2022-09-22T10:30:37.702Z,17.23
2022-09-22T10:33:18.068Z,17.38
2022-09-22T10:35:48.510Z,17.21
2022-09-22T10:38:21.263Z,17.06
2022-09-22T10:40:56.430Z,17.15
2022-09-22T10:43:37.737Z,17.44
2022-09-22T10:46:22.785Z,17.65
2022-09-22T10:48:57.951Z,17.87
2022-09-22T10:51:40.281Z,18.09
2022-09-22T10:54:32.518Z,18.25
2022-09-22T10:57:10.638Z,18.30
2022-09-22T11:00:04.292Z,18.12
2022-09-22T11:02:55.608Z,18.18
2022-09-22T11:05:54.458Z,17.97
2022-09-22T11:08:34.278Z,17.55
2022-09-22T11:11:21.871Z,17.77
2022-09-22T11:14:05.467Z,18.06
2022-09-22T11:16:48.668Z,17.98
2022-09-22T11:19:43.486Z,18.30
2022-09-22T11:22:26.066Z,18.40
2022-09-22T11:25:08.930Z,18.08
2022-09-22T11:27:47.385Z,18.09
2022-09-22T11:30:21.764Z,18.20
2022-09-22T11:33:19.745Z,18.15
2022-09-22T11:36:03.876Z,17.97
2022-09-22T11:38:54.850Z,17.95
2022-09-22T11:41:32.373Z,18.03
2022-09-22T11:44:28.781Z,17.49
2022-09-22T11:47:11.400Z,16.95
2022-09-22T11:49:56.753Z,16.65
2022-09-22T11:52:35.632Z,16.65
2022-09-22T11:55:27.135Z,16.85
2022-09-22T11:58:00.155Z,16.87
2022-09-22T12:00:35.237Z,16.77
2022-09-22T12:03:09.806Z,16.92
2022-09-22T12:05:43.868Z,17.10
2022-09-22T12:08:16.137Z,17.49
2022-09-22T12:10:47.954Z,17.44
2022-09-22T12:13:21.715Z,17.30
2022-09-22T12:18:44.724Z,16.65
2022-09-22T12:21:28.815Z,16.35
2022-09-22T12:24:03.035Z,16.24
2022-09-22T12:26:34.831Z,16.24
2022-09-22T12:29:10.824Z,16.14
2022-09-22T12:31:41.254Z,16.15
2022-09-22T12:34:19.933Z,16.39
2022-09-22T12:36:50.625Z,16.73
2022-09-22T12:39:22.316Z,16.97
2022-09-22T12:41:59.723Z,16.97
2022-09-22T12:44:32.745Z,17.13
2022-09-22T12:47:04.995Z,17.39
2022-09-22T12:49:34.055Z,17.49
2022-09-22T12:52:02.845Z,17.71
2022-09-22T12:54:39.299Z,17.58
2022-09-22T12:57:28.124Z,17.50
2022-09-22T13:00:20.896Z,17.57
2022-09-22T13:02:50.527Z,17.64
2022-09-22T13:05:37.396Z,17.76
2022-09-22T13:08:05.978Z,17.80
2022-09-22T13:10:56.229Z,17.72
2022-09-22T13:13:46.966Z,17.72
2022-09-22T13:16:35.791Z,17.71
2022-09-22T13:19:05.552Z,17.82
2022-09-22T13:21:34.757Z,17.93
2022-09-22T13:24:08.781Z,18.09
2022-09-22T13:26:40.975Z,18.16
2022-09-22T13:29:14.046Z,18.25
2022-09-22T13:31:46.509Z,18.31
2022-09-22T13:34:28.064Z,18.35
2022-09-22T13:37:01.214Z,18.17
2022-09-22T13:39:33.780Z,18.05
2022-09-22T13:42:07.636Z,17.91
2022-09-22T13:44:42.127Z,17.89
2022-09-22T13:47:18.646Z,17.73
2022-09-22T13:49:51.456Z,17.70
2022-09-22T13:52:23.045Z,17.78
2022-09-22T13:54:56.047Z,17.86
2022-09-22T13:57:29.547Z,17.95
2022-09-22T13:59:59.067Z,17.93
2022-09-22T14:02:32.631Z,17.98
2022-09-22T14:05:08.258Z,18.03
2022-09-22T14:07:55.082Z,18.02
2022-09-22T14:10:28.980Z,18.08
2022-09-22T14:12:57.479Z,18.07
2022-09-22T14:15:45.136Z,18.05
2022-09-22T14:18:22.969Z,18.17
2022-09-22T14:20:52.848Z,18.15
2022-09-22T14:23:29.247Z,18.02
2022-09-22T14:26:01.105Z,17.94
2022-09-22T14:28:33.168Z,18.00
2022-09-22T14:31:02.337Z,18.08
2022-09-22T14:33:34.797Z,18.07
2022-09-22T14:36:07.897Z,18.03
2022-09-22T14:38:43.118Z,17.94
2022-09-22T14:41:24.105Z,17.90
2022-09-22T14:43:53.296Z,17.88
2022-09-22T14:46:26.171Z,17.91
2022-09-22T14:48:56.554Z,17.96
2022-09-22T14:51:28.239Z,17.94
2022-09-22T14:54:03.178Z,17.85
2022-09-22T14:56:34.729Z,17.75
2022-09-22T14:59:28.554Z,17.62
2022-09-22T15:02:08.100Z,17.68
2022-09-22T15:04:40.970Z,17.68
2022-09-22T15:07:25.497Z,17.72
2022-09-22T15:09:56.990Z,17.64
2022-09-22T15:12:40.516Z,17.56
2022-09-22T15:15:20.473Z,17.47
2022-09-22T15:18:00.872Z,17.29
2022-09-22T15:20:33.409Z,17.14
2022-09-22T15:23:03.255Z,16.97
2022-09-22T15:25:32.174Z,16.84
2022-09-22T15:28:00.761Z,16.69
2022-09-22T15:30:33.155Z,16.57
2022-09-22T15:33:03.886Z,16.48
2022-09-22T15:35:38.187Z,16.38
2022-09-22T15:38:17.688Z,16.35
2022-09-22T15:40:47.558Z,16.28
2022-09-22T15:43:20.595Z,16.20
2022-09-22T15:45:51.035Z,16.12
2022-09-22T15:48:28.411Z,16.00
2022-09-22T15:51:01.310Z,15.97
2022-09-22T15:53:31.569Z,15.89
2022-09-22T15:56:03.214Z,15.83
2022-09-22T15:58:36.145Z,15.74
2022-09-22T16:01:05.805Z,15.71
2022-09-22T16:03:40.253Z,15.62
2022-09-22T16:06:16.733Z,15.59
2022-09-22T16:08:48.274Z,15.55
2022-09-22T16:11:19.214Z,15.43
2022-09-22T16:13:48.922Z,15.12
2022-09-22T16:16:18.436Z,15.28
2022-09-22T16:18:47.213Z,15.18
2022-09-22T16:21:22.355Z,15.08
2022-09-22T16:23:51.414Z,15.05
2022-09-22T16:26:20.034Z,15.01
2022-09-22T16:28:48.814Z,14.97
2022-09-22T16:31:19.233Z,14.91
2022-09-22T16:33:54.557Z,14.88
2022-09-22T16:36:26.233Z,14.82
2022-09-22T16:38:55.733Z,14.73
2022-09-22T16:41:26.184Z,14.68
2022-09-22T16:43:56.321Z,14.64
2022-09-22T16:46:28.370Z,14.59
2022-09-22T16:49:00.586Z,14.51
2022-09-22T16:51:31.445Z,14.48
2022-09-22T16:54:01.159Z,14.43
2022-09-22T16:56:31.823Z,14.38
2022-09-22T16:59:03.199Z,14.33
2022-09-22T17:01:36.642Z,14.24
2022-09-22T17:04:07.013Z,14.17
2022-09-22T17:06:38.473Z,14.11
2022-09-22T17:09:08.421Z,14.05
2022-09-22T17:11:40.378Z,13.95
2022-09-22T17:14:12.766Z,13.85
2022-09-22T17:16:43.104Z,13.80
2022-09-22T17:19:13.628Z,13.75
2022-09-22T17:21:43.656Z,13.71
2022-09-22T17:24:12.098Z,13.65
2022-09-22T17:26:47.468Z,13.59
2022-09-22T17:29:17.272Z,13.52
2022-09-22T17:31:47.473Z,13.50
2022-09-22T17:34:16.046Z,13.46
2022-09-22T17:36:46.014Z,13.34
2022-09-22T17:39:14.817Z,13.25
2022-09-22T17:41:47.203Z,13.20
2022-09-22T17:44:21.827Z,13.10
2022-09-22T17:47:01.436Z,13.05
2022-09-22T17:49:40.006Z,12.97
2022-09-22T17:52:22.482Z,12.91
2022-09-22T17:55:00.945Z,12.84
2022-09-22T17:57:30.961Z,12.75
2022-09-22T18:00:00.820Z,12.74
2022-09-22T18:02:32.393Z,12.56
2022-09-22T18:05:01.090Z,12.31
2022-09-22T18:07:32.368Z,12.13
2022-09-22T18:10:01.279Z,12.01
2022-09-22T18:12:30.427Z,11.92
2022-09-22T18:15:04.439Z,11.63
2022-09-22T18:17:40.445Z,11.38
2022-09-22T18:20:11.326Z,11.20
2022-09-22T18:22:42.853Z,11.20
2022-09-22T18:25:11.905Z,11.21
2022-09-22T18:27:41.021Z,11.11
2022-09-22T18:30:15.332Z,11.00
2022-09-22T18:32:45.101Z,10.89
2022-09-22T18:35:13.793Z,10.84
2022-09-22T18:37:44.039Z,10.92
2022-09-22T18:40:13.586Z,11.01
2022-09-22T18:42:45.133Z,11.07
2022-09-22T18:45:14.619Z,11.11
2022-09-22T18:47:43.863Z,11.07
2022-09-22T18:50:13.649Z,11.02
2022-09-22T18:52:46.091Z,10.88
2022-09-22T18:55:17.538Z,10.72
2022-09-22T18:57:48.311Z,10.68
2022-09-22T19:00:17.593Z,10.66
2022-09-22T19:02:47.256Z,10.77
2022-09-22T19:05:17.222Z,10.85
2022-09-22T19:07:48.537Z,10.92
2022-09-22T19:10:23.402Z,10.95
2022-09-22T19:12:52.309Z,10.96
2022-09-22T19:15:21.198Z,10.85
2022-09-22T19:17:50.932Z,10.83
2022-09-22T19:20:24.037Z,10.71
2022-09-22T19:22:57.821Z,10.56
2022-09-22T19:25:26.866Z,10.45
2022-09-22T19:27:57.154Z,10.38
2022-09-22T19:30:31.444Z,10.24
2022-09-22T19:33:01.439Z,10.09
2022-09-22T19:35:37.096Z,10.02
2022-09-22T19:38:11.150Z,10.09
2022-09-22T19:40:40.806Z,10.17
2022-09-22T19:43:09.534Z,10.28
2022-09-22T19:45:38.427Z,10.38
2022-09-22T19:48:07.048Z,10.46
2022-09-22T19:50:35.724Z,10.45
2022-09-22T19:53:04.269Z,10.43
2022-09-22T19:55:34.283Z,10.44
2022-09-22T19:58:03.044Z,10.46
2022-09-22T20:00:32.289Z,10.49
2022-09-22T20:03:01.592Z,10.48
2022-09-22T20:05:33.809Z,10.38
2022-09-22T20:08:04.007Z,10.23
2022-09-22T20:10:35.232Z,10.08
2022-09-22T20:13:23.893Z,10.04
2022-09-22T20:15:52.653Z,10.02
2022-09-22T20:18:22.462Z,9.92
2022-09-22T20:20:52.590Z,9.84
2022-09-22T20:23:22.052Z,9.81
2022-09-22T20:25:53.091Z,9.81
2022-09-22T20:28:22.061Z,9.75
2022-09-22T20:30:50.786Z,9.63
2022-09-22T20:33:22.020Z,9.54
2022-09-22T20:35:51.623Z,9.55
2022-09-22T20:38:20.558Z,9.57
2022-09-22T20:40:50.254Z,9.66
2022-09-22T20:43:20.964Z,9.74
2022-09-22T20:45:49.681Z,9.82
2022-09-22T20:48:19.199Z,9.86
2022-09-22T20:50:56.550Z,9.88
2022-09-22T20:53:25.462Z,9.91
2022-09-22T20:56:01.689Z,9.97
2022-09-22T20:58:32.841Z,9.98
2022-09-22T21:01:02.354Z,10.00
2022-09-22T21:03:31.244Z,9.92
2022-09-22T21:06:01.612Z,9.78
2022-09-22T21:08:44.909Z,9.76
2022-09-22T21:11:14.392Z,9.67
2022-09-22T21:13:44.930Z,9.55
2022-09-22T21:16:14.528Z,9.55
2022-09-22T21:18:43.246Z,9.51
2022-09-22T21:21:11.891Z,9.41
2022-09-22T21:23:40.714Z,9.30
2022-09-22T21:26:09.364Z,9.24
2022-09-22T21:28:38.735Z,9.11
2022-09-22T21:31:10.890Z,9.10
2022-09-22T21:33:39.670Z,9.12
2022-09-22T21:36:10.224Z,9.17
2022-09-22T21:38:39.090Z,9.20
2022-09-22T21:41:10.422Z,9.15
2022-09-22T21:43:39.271Z,9.04
2022-09-22T21:46:12.710Z,9.06
2022-09-22T21:48:41.502Z,9.14
2022-09-22T21:51:14.202Z,9.20
2022-09-22T21:53:44.951Z,9.10
2022-09-22T21:56:15.789Z,9.10
2022-09-22T21:58:46.281Z,9.08
2022-09-22T22:01:19.601Z,9.12
2022-09-22T22:03:51.234Z,9.09
2022-09-22T22:06:21.908Z,9.06
2022-09-22T22:08:53.384Z,9.08
2022-09-22T22:11:23.972Z,8.95
2022-09-22T22:13:55.492Z,8.89
2022-09-22T22:16:28.448Z,8.87
2022-09-22T22:18:56.982Z,8.77
2022-09-22T22:21:29.140Z,8.72
2022-09-22T22:24:20.450Z,8.72
2022-09-22T22:26:51.999Z,8.73
2022-09-22T22:29:22.148Z,8.62
2022-09-22T22:31:54.158Z,8.62
2022-09-22T22:34:26.473Z,8.46
2022-09-22T22:36:55.560Z,8.36
2022-09-22T22:39:24.259Z,8.35
2022-09-22T22:41:54.788Z,8.26
2022-09-22T22:44:24.053Z,8.15
2022-09-22T22:46:54.000Z,8.08
2022-09-22T22:49:22.780Z,8.05
2022-09-22T22:51:53.781Z,8.01
2022-09-22T22:54:22.450Z,8.03
2022-09-22T22:56:51.634Z,8.05
2022-09-22T22:59:20.752Z,8.02
2022-09-22T23:01:49.516Z,7.95
2022-09-22T23:04:19.573Z,7.87
2022-09-22T23:06:48.773Z,7.89
2022-09-22T23:09:18.751Z,7.94
2022-09-22T23:11:47.759Z,7.91
2022-09-22T23:14:17.480Z,7.89
2022-09-22T23:16:49.942Z,7.97
2022-09-22T23:19:20.530Z,8.02
2022-09-22T23:21:49.238Z,8.09
2022-09-22T23:24:19.296Z,8.18
2022-09-22T23:26:48.472Z,8.26
2022-09-22T23:29:16.962Z,8.30
2022-09-22T23:31:46.072Z,8.29
2022-09-22T23:34:14.788Z,8.30
2022-09-22T23:36:45.543Z,8.27
2022-09-22T23:39:14.131Z,8.19
2022-09-22T23:41:43.141Z,8.11
2022-09-22T23:44:12.735Z,8.01
2022-09-22T23:46:41.316Z,8.09
2022-09-22T23:49:10.031Z,8.08
2022-09-22T23:51:38.564Z,8.01
2022-09-22T23:54:08.975Z,7.93
2022-09-22T23:56:37.980Z,7.92
2022-09-22T23:59:06.743Z,7.98
